sensor_id;sensor_type;location;lat;lon;timestamp;temperature;humidity
6206;DHT22;3136;48.788;9.772;2023-10-13T00:00:22;13.80;1.00
6206;DHT22;3136;48.788;9.772;2023-10-13T00:02:56;13.80;1.00
6206;DHT22;3136;48.788;9.772;2023-10-13T00:05:26;13.70;1.00
6206;DHT22;3136;48.788;9.772;2023-10-13T00:07:52;13.70;1.00
6206;DHT22;3136;48.788;9.772;2023-10-13T00:10:17;13.70;1.00
6206;DHT22;3136;48.788;9.772;2023-10-13T00:12:44;13.70;1.00
6206;DHT22;3136;48.788;9.772;2023-10-13T00:15:17;13.70;1.00
6206;DHT22;3136;48.788;9.772;2023-10-13T00:17:43;13.70;1.00
6206;DHT22;3136;48.788;9.772;2023-10-13T00:20:09;13.70;1.00
6206;DHT22;3136;48.788;9.772;2023-10-13T00:23:01;13.60;1.00
6206;DHT22;3136;48.788;9.772;2023-10-13T00:25:32;13.60;1.00
6206;DHT22;3136;48.788;9.772;2023-10-13T00:28:09;13.50;1.00
6206;DHT22;3136;48.788;9.772;2023-10-13T00:30:35;13.50;1.00
6206;DHT22;3136;48.788;9.772;2023-10-13T00:33:00;13.40;1.00
6206;DHT22;3136;48.788;9.772;2023-10-13T00:35:27;13.40;1.00
6206;DHT22;3136;48.788;9.772;2023-10-13T00:38:05;13.30;1.00
6206;DHT22;3136;48.788;9.772;2023-10-13T00:40:42;13.30;1.00
6206;DHT22;3136;48.788;9.772;2023-10-13T00:43:10;13.30;1.00
6206;DHT22;3136;48.788;9.772;2023-10-13T00:45:46;13.20;1.00
6206;DHT22;3136;48.788;9.772;2023-10-13T00:48:22;13.20;1.00
6206;DHT22;3136;48.788;9.772;2023-10-13T00:50:58;13.20;1.00
6206;DHT22;3136;48.788;9.772;2023-10-13T00:53:28;13.10;1.00
6206;DHT22;3136;48.788;9.772;2023-10-13T00:55:54;13.10;1.00
6206;DHT22;3136;48.788;9.772;2023-10-13T00:58:23;13.10;1.00
6206;DHT22;3136;48.788;9.772;2023-10-13T01:00:52;13.00;29.10
6206;DHT22;3136;48.788;9.772;2023-10-13T01:03:24;13.00;36.20
6206;DHT22;3136;48.788;9.772;2023-10-13T01:05:55;12.90;41.80
6206;DHT22;3136;48.788;9.772;2023-10-13T01:08:33;12.90;63.60
6206;DHT22;3136;48.788;9.772;2023-10-13T01:11:04;12.90;93.20
6206;DHT22;3136;48.788;9.772;2023-10-13T01:13:32;12.80;99.90
6206;DHT22;3136;48.788;9.772;2023-10-13T01:16:01;12.80;99.90
6206;DHT22;3136;48.788;9.772;2023-10-13T01:18:27;12.70;99.90
6206;DHT22;3136;48.788;9.772;2023-10-13T01:20:54;12.70;99.90
6206;DHT22;3136;48.788;9.772;2023-10-13T01:23:25;12.60;99.90
6206;DHT22;3136;48.788;9.772;2023-10-13T01:25:54;12.60;99.90
6206;DHT22;3136;48.788;9.772;2023-10-13T01:28:22;12.60;99.90
6206;DHT22;3136;48.788;9.772;2023-10-13T01:30:48;12.50;99.90
6206;DHT22;3136;48.788;9.772;2023-10-13T01:33:17;12.50;99.90
6206;DHT22;3136;48.788;9.772;2023-10-13T01:35:51;12.40;99.90
6206;DHT22;3136;48.788;9.772;2023-10-13T01:38:18;12.40;99.90
6206;DHT22;3136;48.788;9.772;2023-10-13T01:40:44;12.30;99.90
6206;DHT22;3136;48.788;9.772;2023-10-13T01:43:09;12.30;99.90
6206;DHT22;3136;48.788;9.772;2023-10-13T01:45:40;12.40;99.90
6206;DHT22;3136;48.788;9.772;2023-10-13T01:48:12;12.30;99.90
6206;DHT22;3136;48.788;9.772;2023-10-13T01:50:41;12.20;99.90
6206;DHT22;3136;48.788;9.772;2023-10-13T01:53:07;12.20;99.90
6206;DHT22;3136;48.788;9.772;2023-10-13T01:55:40;12.20;99.90
6206;DHT22;3136;48.788;9.772;2023-10-13T01:58:10;12.10;99.90
6206;DHT22;3136;48.788;9.772;2023-10-13T02:00:44;12.10;99.90
6206;DHT22;3136;48.788;9.772;2023-10-13T02:03:11;12.10;99.90
6206;DHT22;3136;48.788;9.772;2023-10-13T02:05:43;12.10;99.90
6206;DHT22;3136;48.788;9.772;2023-10-13T02:08:12;12.10;99.90
6206;DHT22;3136;48.788;9.772;2023-10-13T02:10:43;12.10;99.90
6206;DHT22;3136;48.788;9.772;2023-10-13T02:13:16;12.00;99.90
6206;DHT22;3136;48.788;9.772;2023-10-13T02:15:46;12.00;99.90
6206;DHT22;3136;48.788;9.772;2023-10-13T02:18:14;11.90;99.90
6206;DHT22;3136;48.788;9.772;2023-10-13T02:20:49;11.80;99.90
6206;DHT22;3136;48.788;9.772;2023-10-13T02:23:24;11.80;99.90
6206;DHT22;3136;48.788;9.772;2023-10-13T02:25:50;11.70;99.90
6206;DHT22;3136;48.788;9.772;2023-10-13T02:28:26;11.70;99.90
6206;DHT22;3136;48.788;9.772;2023-10-13T02:30:54;11.70;99.90
6206;DHT22;3136;48.788;9.772;2023-10-13T02:33:20;11.60;99.90
6206;DHT22;3136;48.788;9.772;2023-10-13T02:35:59;11.60;99.90
6206;DHT22;3136;48.788;9.772;2023-10-13T02:38:25;11.60;99.90
6206;DHT22;3136;48.788;9.772;2023-10-13T02:40:59;11.50;99.90
6206;DHT22;3136;48.788;9.772;2023-10-13T02:43:35;11.50;99.90
6206;DHT22;3136;48.788;9.772;2023-10-13T02:46:00;11.50;99.90
6206;DHT22;3136;48.788;9.772;2023-10-13T02:48:28;11.40;99.90
6206;DHT22;3136;48.788;9.772;2023-10-13T02:51:06;11.40;99.90
6206;DHT22;3136;48.788;9.772;2023-10-13T02:53:41;11.40;99.90
6206;DHT22;3136;48.788;9.772;2023-10-13T02:56:07;11.40;99.90
6206;DHT22;3136;48.788;9.772;2023-10-13T02:58:33;11.30;99.90
6206;DHT22;3136;48.788;9.772;2023-10-13T03:01:08;11.30;99.90
6206;DHT22;3136;48.788;9.772;2023-10-13T03:03:48;11.20;99.90
6206;DHT22;3136;48.788;9.772;2023-10-13T03:06:16;11.20;99.90
6206;DHT22;3136;48.788;9.772;2023-10-13T03:08:42;11.20;99.90
6206;DHT22;3136;48.788;9.772;2023-10-13T03:11:11;11.20;99.90
6206;DHT22;3136;48.788;9.772;2023-10-13T03:13:39;11.10;99.90
6206;DHT22;3136;48.788;9.772;2023-10-13T03:16:13;11.10;99.90
6206;DHT22;3136;48.788;9.772;2023-10-13T03:18:42;11.10;99.90
6206;DHT22;3136;48.788;9.772;2023-10-13T03:21:16;11.10;99.90
6206;DHT22;3136;48.788;9.772;2023-10-13T03:23:54;11.10;99.90
6206;DHT22;3136;48.788;9.772;2023-10-13T03:26:20;11.00;99.90
6206;DHT22;3136;48.788;9.772;2023-10-13T03:28:46;11.00;99.90
6206;DHT22;3136;48.788;9.772;2023-10-13T03:31:18;11.00;99.90
6206;DHT22;3136;48.788;9.772;2023-10-13T03:33:44;11.00;99.90
6206;DHT22;3136;48.788;9.772;2023-10-13T03:36:13;10.90;99.90
6206;DHT22;3136;48.788;9.772;2023-10-13T03:38:58;10.90;99.90
6206;DHT22;3136;48.788;9.772;2023-10-13T03:41:24;10.80;99.90
6206;DHT22;3136;48.788;9.772;2023-10-13T03:43:55;10.80;99.90
6206;DHT22;3136;48.788;9.772;2023-10-13T03:46:34;10.80;1.00
6206;DHT22;3136;48.788;9.772;2023-10-13T03:49:02;12.00;1.00
6206;DHT22;3136;48.788;9.772;2023-10-13T03:51:31;10.70;1.00
6206;DHT22;3136;48.788;9.772;2023-10-13T03:53:57;10.70;1.00
6206;DHT22;3136;48.788;9.772;2023-10-13T03:56:25;10.80;1.00
6206;DHT22;3136;48.788;9.772;2023-10-13T03:58:55;10.80;1.00
6206;DHT22;3136;48.788;9.772;2023-10-13T04:01:26;10.70;1.00
6206;DHT22;3136;48.788;9.772;2023-10-13T04:04:11;10.70;1.00
6206;DHT22;3136;48.788;9.772;2023-10-13T04:06:38;10.70;1.00
6206;DHT22;3136;48.788;9.772;2023-10-13T04:09:16;12.20;1.00
6206;DHT22;3136;48.788;9.772;2023-10-13T04:12:00;10.60;1.00
6206;DHT22;3136;48.788;9.772;2023-10-13T04:14:27;10.60;1.00
6206;DHT22;3136;48.788;9.772;2023-10-13T04:17:11;10.50;1.00
6206;DHT22;3136;48.788;9.772;2023-10-13T04:19:43;10.50;1.00
6206;DHT22;3136;48.788;9.772;2023-10-13T04:22:27;10.50;1.00
6206;DHT22;3136;48.788;9.772;2023-10-13T04:25:25;10.40;1.00
6206;DHT22;3136;48.788;9.772;2023-10-13T04:28:04;10.40;1.00
6206;DHT22;3136;48.788;9.772;2023-10-13T04:33:30;10.40;1.00
6206;DHT22;3136;48.788;9.772;2023-10-13T04:36:15;10.40;1.00
6206;DHT22;3136;48.788;9.772;2023-10-13T04:38:47;10.30;1.00
6206;DHT22;3136;48.788;9.772;2023-10-13T04:41:26;10.30;1.00
6206;DHT22;3136;48.788;9.772;2023-10-13T04:43:59;10.30;1.00
6206;DHT22;3136;48.788;9.772;2023-10-13T04:46:48;10.20;1.00
6206;DHT22;3136;48.788;9.772;2023-10-13T04:49:13;10.20;1.00
6206;DHT22;3136;48.788;9.772;2023-10-13T04:52:04;10.20;1.00
6206;DHT22;3136;48.788;9.772;2023-10-13T04:54:43;10.20;1.00
6206;DHT22;3136;48.788;9.772;2023-10-13T04:57:21;10.20;1.00
6206;DHT22;3136;48.788;9.772;2023-10-13T05:00:25;10.20;1.00
6206;DHT22;3136;48.788;9.772;2023-10-13T05:03:21;10.20;1.00
6206;DHT22;3136;48.788;9.772;2023-10-13T05:06:06;10.20;1.00
6206;DHT22;3136;48.788;9.772;2023-10-13T05:08:57;10.20;1.00
6206;DHT22;3136;48.788;9.772;2023-10-13T05:11:41;10.10;1.00
6206;DHT22;3136;48.788;9.772;2023-10-13T05:14:25;10.10;1.00
6206;DHT22;3136;48.788;9.772;2023-10-13T05:17:09;10.80;1.00
6206;DHT22;3136;48.788;9.772;2023-10-13T05:19:57;10.10;1.00
6206;DHT22;3136;48.788;9.772;2023-10-13T05:22:41;10.00;1.00
6206;DHT22;3136;48.788;9.772;2023-10-13T05:25:30;10.00;1.00
6206;DHT22;3136;48.788;9.772;2023-10-13T05:28:14;10.00;1.00
6206;DHT22;3136;48.788;9.772;2023-10-13T05:31:02;10.00;1.00
6206;DHT22;3136;48.788;9.772;2023-10-13T05:33:46;10.00;1.00
6206;DHT22;3136;48.788;9.772;2023-10-13T05:36:31;9.90;1.00
6206;DHT22;3136;48.788;9.772;2023-10-13T05:39:14;9.90;1.00
6206;DHT22;3136;48.788;9.772;2023-10-13T05:41:59;9.90;1.00
6206;DHT22;3136;48.788;9.772;2023-10-13T05:44:43;9.90;1.00
6206;DHT22;3136;48.788;9.772;2023-10-13T05:47:27;9.90;1.00
6206;DHT22;3136;48.788;9.772;2023-10-13T05:50:08;9.90;1.00
6206;DHT22;3136;48.788;9.772;2023-10-13T05:52:50;9.90;1.00
6206;DHT22;3136;48.788;9.772;2023-10-13T05:55:25;9.90;1.00
6206;DHT22;3136;48.788;9.772;2023-10-13T05:58:09;9.90;1.00
6206;DHT22;3136;48.788;9.772;2023-10-13T06:00:53;9.90;1.00
6206;DHT22;3136;48.788;9.772;2023-10-13T06:03:37;10.00;1.00
6206;DHT22;3136;48.788;9.772;2023-10-13T06:06:22;10.00;1.00
6206;DHT22;3136;48.788;9.772;2023-10-13T06:09:06;10.00;1.00
6206;DHT22;3136;48.788;9.772;2023-10-13T06:11:50;10.00;1.00
6206;DHT22;3136;48.788;9.772;2023-10-13T06:14:34;10.10;1.00
6206;DHT22;3136;48.788;9.772;2023-10-13T06:17:18;10.10;1.00
6206;DHT22;3136;48.788;9.772;2023-10-13T06:20:02;10.10;1.00
6206;DHT22;3136;48.788;9.772;2023-10-13T06:22:49;10.10;1.00
6206;DHT22;3136;48.788;9.772;2023-10-13T06:25:34;10.20;1.00
6206;DHT22;3136;48.788;9.772;2023-10-13T06:28:19;10.20;1.00
6206;DHT22;3136;48.788;9.772;2023-10-13T06:31:04;10.30;1.00
6206;DHT22;3136;48.788;9.772;2023-10-13T06:33:34;10.30;1.00
6206;DHT22;3136;48.788;9.772;2023-10-13T06:36:03;10.40;1.00
6206;DHT22;3136;48.788;9.772;2023-10-13T06:38:29;10.40;1.00
6206;DHT22;3136;48.788;9.772;2023-10-13T06:41:02;10.50;1.00
6206;DHT22;3136;48.788;9.772;2023-10-13T06:43:37;10.60;1.00
6206;DHT22;3136;48.788;9.772;2023-10-13T06:46:11;10.60;1.00
6206;DHT22;3136;48.788;9.772;2023-10-13T06:48:40;10.70;1.00
6206;DHT22;3136;48.788;9.772;2023-10-13T06:51:07;10.80;1.00
6206;DHT22;3136;48.788;9.772;2023-10-13T06:53:48;10.80;1.00
6206;DHT22;3136;48.788;9.772;2023-10-13T06:56:16;10.90;1.00
6206;DHT22;3136;48.788;9.772;2023-10-13T06:58:50;10.90;1.00
6206;DHT22;3136;48.788;9.772;2023-10-13T07:01:16;11.00;1.00
6206;DHT22;3136;48.788;9.772;2023-10-13T07:03:48;11.10;1.00
6206;DHT22;3136;48.788;9.772;2023-10-13T07:06:20;11.20;1.00
6206;DHT22;3136;48.788;9.772;2023-10-13T07:08:47;11.20;1.00
6206;DHT22;3136;48.788;9.772;2023-10-13T07:11:18;11.40;1.00
6206;DHT22;3136;48.788;9.772;2023-10-13T07:14:07;11.50;1.00
6206;DHT22;3136;48.788;9.772;2023-10-13T07:16:43;11.50;1.00
6206;DHT22;3136;48.788;9.772;2023-10-13T07:19:13;11.70;1.00
6206;DHT22;3136;48.788;9.772;2023-10-13T07:21:44;11.70;1.00
6206;DHT22;3136;48.788;9.772;2023-10-13T07:24:14;11.80;1.00
6206;DHT22;3136;48.788;9.772;2023-10-13T07:26:41;11.80;1.00
6206;DHT22;3136;48.788;9.772;2023-10-13T07:29:12;11.90;1.00
6206;DHT22;3136;48.788;9.772;2023-10-13T07:31:38;12.00;99.90
6206;DHT22;3136;48.788;9.772;2023-10-13T07:34:06;12.10;99.90
6206;DHT22;3136;48.788;9.772;2023-10-13T07:36:42;12.20;99.90
6206;DHT22;3136;48.788;9.772;2023-10-13T07:39:09;12.30;99.90
6206;DHT22;3136;48.788;9.772;2023-10-13T07:41:53;12.40;99.90
6206;DHT22;3136;48.788;9.772;2023-10-13T07:44:29;12.50;81.70
6206;DHT22;3136;48.788;9.772;2023-10-13T07:46:57;12.60;1.00
6206;DHT22;3136;48.788;9.772;2023-10-13T07:49:27;12.70;1.00
6206;DHT22;3136;48.788;9.772;2023-10-13T07:52:00;12.90;1.00
6206;DHT22;3136;48.788;9.772;2023-10-13T07:54:28;13.00;99.90
6206;DHT22;3136;48.788;9.772;2023-10-13T07:56:54;13.20;1.00
6206;DHT22;3136;48.788;9.772;2023-10-13T07:59:22;13.30;38.70
6206;DHT22;3136;48.788;9.772;2023-10-13T08:01:49;13.40;99.90
6206;DHT22;3136;48.788;9.772;2023-10-13T08:04:34;13.50;99.90
6206;DHT22;3136;48.788;9.772;2023-10-13T08:07:02;13.70;1.00
6206;DHT22;3136;48.788;9.772;2023-10-13T08:09:38;13.90;99.90
6206;DHT22;3136;48.788;9.772;2023-10-13T08:12:07;14.10;99.90
6206;DHT22;3136;48.788;9.772;2023-10-13T08:14:38;14.20;1.00
6206;DHT22;3136;48.788;9.772;2023-10-13T08:17:07;14.40;1.00
6206;DHT22;3136;48.788;9.772;2023-10-13T08:19:36;14.60;1.00
6206;DHT22;3136;48.788;9.772;2023-10-13T08:22:05;14.70;1.00
6206;DHT22;3136;48.788;9.772;2023-10-13T08:24:44;14.90;1.00
6206;DHT22;3136;48.788;9.772;2023-10-13T08:27:09;15.10;99.90
6206;DHT22;3136;48.788;9.772;2023-10-13T08:29:54;15.20;99.90
6206;DHT22;3136;48.788;9.772;2023-10-13T08:32:23;15.50;99.90
6206;DHT22;3136;48.788;9.772;2023-10-13T08:35:02;15.80;99.90
6206;DHT22;3136;48.788;9.772;2023-10-13T08:37:32;15.80;1.00
6206;DHT22;3136;48.788;9.772;2023-10-13T08:40:01;16.00;1.00
6206;DHT22;3136;48.788;9.772;2023-10-13T08:42:37;16.30;1.00
6206;DHT22;3136;48.788;9.772;2023-10-13T08:45:08;16.50;1.00
6206;DHT22;3136;48.788;9.772;2023-10-13T08:47:55;16.70;99.90
6206;DHT22;3136;48.788;9.772;2023-10-13T08:50:35;16.90;99.90
6206;DHT22;3136;48.788;9.772;2023-10-13T08:53:28;17.10;99.90
6206;DHT22;3136;48.788;9.772;2023-10-13T08:56:02;17.40;11.10
6206;DHT22;3136;48.788;9.772;2023-10-13T08:58:47;17.60;1.00
6206;DHT22;3136;48.788;9.772;2023-10-13T09:01:32;17.80;1.00
6206;DHT22;3136;48.788;9.772;2023-10-13T09:04:18;18.00;1.00
6206;DHT22;3136;48.788;9.772;2023-10-13T09:12:26;18.80;1.00
6206;DHT22;3136;48.788;9.772;2023-10-13T09:14:59;19.10;1.00
6206;DHT22;3136;48.788;9.772;2023-10-13T09:17:39;19.30;1.00
6206;DHT22;3136;48.788;9.772;2023-10-13T09:20:07;19.50;1.00
6206;DHT22;3136;48.788;9.772;2023-10-13T09:22:51;19.60;99.90
6206;DHT22;3136;48.788;9.772;2023-10-13T09:25:33;19.80;99.90
6206;DHT22;3136;48.788;9.772;2023-10-13T09:28:00;20.10;99.90
6206;DHT22;3136;48.788;9.772;2023-10-13T09:30:27;21.10;99.90
6206;DHT22;3136;48.788;9.772;2023-10-13T09:33:04;20.50;99.90
6206;DHT22;3136;48.788;9.772;2023-10-13T09:35:45;20.80;99.90
6206;DHT22;3136;48.788;9.772;2023-10-13T09:38:17;21.00;99.90
6206;DHT22;3136;48.788;9.772;2023-10-13T09:40:44;21.30;88.10
6206;DHT22;3136;48.788;9.772;2023-10-13T09:43:19;21.60;40.70
6206;DHT22;3136;48.788;9.772;2023-10-13T09:45:49;21.90;64.30
6206;DHT22;3136;48.788;9.772;2023-10-13T09:48:44;22.40;11.00
6206;DHT22;3136;48.788;9.772;2023-10-13T09:51:17;22.60;1.00
6206;DHT22;3136;48.788;9.772;2023-10-13T09:54:06;23.10;1.00
6206;DHT22;3136;48.788;9.772;2023-10-13T09:56:44;23.60;1.00
6206;DHT22;3136;48.788;9.772;2023-10-13T09:59:24;24.00;1.00
6206;DHT22;3136;48.788;9.772;2023-10-13T10:01:51;24.40;1.00
6206;DHT22;3136;48.788;9.772;2023-10-13T10:04:23;24.70;1.00
6206;DHT22;3136;48.788;9.772;2023-10-13T10:06:53;24.90;1.00
6206;DHT22;3136;48.788;9.772;2023-10-13T10:09:19;25.10;1.00
6206;DHT22;3136;48.788;9.772;2023-10-13T10:17:13;25.80;1.00
6206;DHT22;3136;48.788;9.772;2023-10-13T10:19:49;26.10;1.00
6206;DHT22;3136;48.788;9.772;2023-10-13T10:22:42;26.20;1.00
6206;DHT22;3136;48.788;9.772;2023-10-13T10:25:13;26.40;1.00
6206;DHT22;3136;48.788;9.772;2023-10-13T10:27:59;26.60;1.00
6206;DHT22;3136;48.788;9.772;2023-10-13T10:30:29;26.50;1.00
6206;DHT22;3136;48.788;9.772;2023-10-13T10:32:56;26.60;1.00
6206;DHT22;3136;48.788;9.772;2023-10-13T10:36:00;26.60;1.00
6206;DHT22;3136;48.788;9.772;2023-10-13T10:38:26;26.80;1.00
6206;DHT22;3136;48.788;9.772;2023-10-13T10:41:02;27.00;1.00
6206;DHT22;3136;48.788;9.772;2023-10-13T10:43:38;27.10;1.00
6206;DHT22;3136;48.788;9.772;2023-10-13T10:46:18;27.20;1.00
6206;DHT22;3136;48.788;9.772;2023-10-13T10:48:44;27.50;1.00
6206;DHT22;3136;48.788;9.772;2023-10-13T10:51:11;27.90;1.00
6206;DHT22;3136;48.788;9.772;2023-10-13T10:54:04;28.10;1.00
6206;DHT22;3136;48.788;9.772;2023-10-13T10:56:47;28.30;1.00
6206;DHT22;3136;48.788;9.772;2023-10-13T10:59:18;28.70;1.00
6206;DHT22;3136;48.788;9.772;2023-10-13T11:01:45;29.60;1.00
6206;DHT22;3136;48.788;9.772;2023-10-13T11:04:17;30.50;1.00
6206;DHT22;3136;48.788;9.772;2023-10-13T11:06:47;31.60;1.00
6206;DHT22;3136;48.788;9.772;2023-10-13T11:09:12;32.30;1.00
6206;DHT22;3136;48.788;9.772;2023-10-13T11:12:17;32.90;1.00
6206;DHT22;3136;48.788;9.772;2023-10-13T11:15:08;34.20;1.00
6206;DHT22;3136;48.788;9.772;2023-10-13T11:17:48;34.70;1.00
6206;DHT22;3136;48.788;9.772;2023-10-13T11:20:18;34.50;1.00
6206;DHT22;3136;48.788;9.772;2023-10-13T11:22:51;34.40;1.00
6206;DHT22;3136;48.788;9.772;2023-10-13T11:25:25;34.20;1.00
6206;DHT22;3136;48.788;9.772;2023-10-13T11:27:58;33.80;1.00
6206;DHT22;3136;48.788;9.772;2023-10-13T11:30:32;33.50;1.00
6206;DHT22;3136;48.788;9.772;2023-10-13T11:33:10;33.80;1.00
6206;DHT22;3136;48.788;9.772;2023-10-13T11:35:37;33.60;1.00
6206;DHT22;3136;48.788;9.772;2023-10-13T11:38:18;33.20;1.00
6206;DHT22;3136;48.788;9.772;2023-10-13T11:41:01;32.90;1.00
6206;DHT22;3136;48.788;9.772;2023-10-13T11:43:30;32.00;1.00
6206;DHT22;3136;48.788;9.772;2023-10-13T11:46:01;31.40;1.00
6206;DHT22;3136;48.788;9.772;2023-10-13T11:48:40;30.70;1.00
6206;DHT22;3136;48.788;9.772;2023-10-13T11:51:11;30.50;1.00
6206;DHT22;3136;48.788;9.772;2023-10-13T11:53:44;30.80;1.00
6206;DHT22;3136;48.788;9.772;2023-10-13T11:56:19;31.60;1.00
6206;DHT22;3136;48.788;9.772;2023-10-13T11:58:49;32.80;1.00
6206;DHT22;3136;48.788;9.772;2023-10-13T12:01:15;33.90;1.00
6206;DHT22;3136;48.788;9.772;2023-10-13T12:03:41;34.80;1.00
6206;DHT22;3136;48.788;9.772;2023-10-13T12:06:27;35.80;1.00
6206;DHT22;3136;48.788;9.772;2023-10-13T12:09:09;36.50;1.00
6206;DHT22;3136;48.788;9.772;2023-10-13T12:11:48;36.80;1.00
6206;DHT22;3136;48.788;9.772;2023-10-13T12:14:18;37.20;1.00
6206;DHT22;3136;48.788;9.772;2023-10-13T12:17:03;37.80;1.00
6206;DHT22;3136;48.788;9.772;2023-10-13T12:19:36;37.60;1.00
6206;DHT22;3136;48.788;9.772;2023-10-13T12:22:04;37.90;1.00
6206;DHT22;3136;48.788;9.772;2023-10-13T12:24:30;38.00;1.00
6206;DHT22;3136;48.788;9.772;2023-10-13T12:27:08;37.80;1.00
6206;DHT22;3136;48.788;9.772;2023-10-13T12:29:57;38.00;1.00
6206;DHT22;3136;48.788;9.772;2023-10-13T12:32:24;37.80;1.00
6206;DHT22;3136;48.788;9.772;2023-10-13T12:34:51;37.80;1.00
6206;DHT22;3136;48.788;9.772;2023-10-13T12:37:23;38.00;1.00
6206;DHT22;3136;48.788;9.772;2023-10-13T12:40:05;38.50;1.00
6206;DHT22;3136;48.788;9.772;2023-10-13T12:42:49;38.50;1.00
6206;DHT22;3136;48.788;9.772;2023-10-13T12:45:37;38.40;1.00
6206;DHT22;3136;48.788;9.772;2023-10-13T12:48:21;38.20;1.00
6206;DHT22;3136;48.788;9.772;2023-10-13T12:51:05;38.00;1.00
6206;DHT22;3136;48.788;9.772;2023-10-13T12:53:55;38.00;1.00
6206;DHT22;3136;48.788;9.772;2023-10-13T12:56:30;38.10;1.00
6206;DHT22;3136;48.788;9.772;2023-10-13T12:58:55;38.90;1.00
6206;DHT22;3136;48.788;9.772;2023-10-13T13:01:22;38.50;1.00
6206;DHT22;3136;48.788;9.772;2023-10-13T13:03:50;38.50;1.00
6206;DHT22;3136;48.788;9.772;2023-10-13T13:06:19;38.60;1.00
6206;DHT22;3136;48.788;9.772;2023-10-13T13:08:51;38.50;1.00
6206;DHT22;3136;48.788;9.772;2023-10-13T13:11:17;38.30;1.00
6206;DHT22;3136;48.788;9.772;2023-10-13T13:13:42;38.20;1.00
6206;DHT22;3136;48.788;9.772;2023-10-13T13:16:08;38.30;1.00
6206;DHT22;3136;48.788;9.772;2023-10-13T13:18:34;38.10;1.00
6206;DHT22;3136;48.788;9.772;2023-10-13T13:21:00;37.90;1.00
6206;DHT22;3136;48.788;9.772;2023-10-13T13:23:27;38.20;1.00
6206;DHT22;3136;48.788;9.772;2023-10-13T13:25:53;38.60;1.00
6206;DHT22;3136;48.788;9.772;2023-10-13T13:28:22;38.60;1.00
6206;DHT22;3136;48.788;9.772;2023-10-13T13:30:49;38.50;1.00
6206;DHT22;3136;48.788;9.772;2023-10-13T13:33:16;38.50;1.00
6206;DHT22;3136;48.788;9.772;2023-10-13T13:35:42;39.00;1.00
6206;DHT22;3136;48.788;9.772;2023-10-13T13:38:14;38.90;1.00
6206;DHT22;3136;48.788;9.772;2023-10-13T13:40:48;38.10;1.00
6206;DHT22;3136;48.788;9.772;2023-10-13T13:43:22;37.00;1.00
6206;DHT22;3136;48.788;9.772;2023-10-13T13:46:03;36.40;1.00
6206;DHT22;3136;48.788;9.772;2023-10-13T13:48:40;36.40;1.00
6206;DHT22;3136;48.788;9.772;2023-10-13T13:51:07;36.00;1.00
6206;DHT22;3136;48.788;9.772;2023-10-13T13:53:43;35.50;1.00
6206;DHT22;3136;48.788;9.772;2023-10-13T13:56:14;34.60;1.00
6206;DHT22;3136;48.788;9.772;2023-10-13T13:58:43;33.80;1.00
6206;DHT22;3136;48.788;9.772;2023-10-13T14:01:09;32.90;1.00
6206;DHT22;3136;48.788;9.772;2023-10-13T14:03:41;32.60;1.00
6206;DHT22;3136;48.788;9.772;2023-10-13T14:06:20;31.90;1.00
6206;DHT22;3136;48.788;9.772;2023-10-13T14:08:49;31.50;1.00
6206;DHT22;3136;48.788;9.772;2023-10-13T14:11:19;31.20;1.00
6206;DHT22;3136;48.788;9.772;2023-10-13T14:13:51;31.10;1.00
6206;DHT22;3136;48.788;9.772;2023-10-13T14:16:21;30.80;1.00
6206;DHT22;3136;48.788;9.772;2023-10-13T14:18:49;30.30;1.00
6206;DHT22;3136;48.788;9.772;2023-10-13T14:21:15;29.80;1.00
6206;DHT22;3136;48.788;9.772;2023-10-13T14:23:47;29.40;1.00
6206;DHT22;3136;48.788;9.772;2023-10-13T14:26:18;29.10;1.00
6206;DHT22;3136;48.788;9.772;2023-10-13T14:28:47;28.90;1.00
6206;DHT22;3136;48.788;9.772;2023-10-13T14:31:34;28.80;1.00
6206;DHT22;3136;48.788;9.772;2023-10-13T14:34:01;28.80;1.00
6206;DHT22;3136;48.788;9.772;2023-10-13T14:36:27;28.60;1.00
6206;DHT22;3136;48.788;9.772;2023-10-13T14:38:55;28.50;1.00
6206;DHT22;3136;48.788;9.772;2023-10-13T14:41:21;28.40;1.00
6206;DHT22;3136;48.788;9.772;2023-10-13T14:43:47;28.10;1.00
6206;DHT22;3136;48.788;9.772;2023-10-13T14:46:16;28.10;1.00
6206;DHT22;3136;48.788;9.772;2023-10-13T14:48:43;27.90;1.00
6206;DHT22;3136;48.788;9.772;2023-10-13T14:51:12;27.90;1.00
6206;DHT22;3136;48.788;9.772;2023-10-13T14:53:42;27.70;1.00
6206;DHT22;3136;48.788;9.772;2023-10-13T14:56:18;27.80;1.00
6206;DHT22;3136;48.788;9.772;2023-10-13T14:58:44;27.60;1.00
6206;DHT22;3136;48.788;9.772;2023-10-13T15:01:14;27.40;1.00
6206;DHT22;3136;48.788;9.772;2023-10-13T15:03:42;27.20;1.00
6206;DHT22;3136;48.788;9.772;2023-10-13T15:06:15;27.10;1.00
6206;DHT22;3136;48.788;9.772;2023-10-13T15:08:48;26.90;1.00
6206;DHT22;3136;48.788;9.772;2023-10-13T15:11:14;26.60;1.00
6206;DHT22;3136;48.788;9.772;2023-10-13T15:13:40;26.40;1.00
6206;DHT22;3136;48.788;9.772;2023-10-13T15:16:13;26.30;1.00
6206;DHT22;3136;48.788;9.772;2023-10-13T15:18:40;26.10;1.00
6206;DHT22;3136;48.788;9.772;2023-10-13T15:21:06;26.00;1.00
6206;DHT22;3136;48.788;9.772;2023-10-13T15:23:34;25.80;1.00
6206;DHT22;3136;48.788;9.772;2023-10-13T15:26:08;25.60;1.00
6206;DHT22;3136;48.788;9.772;2023-10-13T15:28:35;25.30;1.00
6206;DHT22;3136;48.788;9.772;2023-10-13T15:31:10;25.10;1.00
6206;DHT22;3136;48.788;9.772;2023-10-13T15:33:50;24.80;1.00
6206;DHT22;3136;48.788;9.772;2023-10-13T15:36:18;24.30;1.00
6206;DHT22;3136;48.788;9.772;2023-10-13T15:38:45;23.90;1.00
6206;DHT22;3136;48.788;9.772;2023-10-13T15:41:12;23.40;1.00
6206;DHT22;3136;48.788;9.772;2023-10-13T15:43:37;22.90;1.00
6206;DHT22;3136;48.788;9.772;2023-10-13T15:46:15;22.50;1.00
6206;DHT22;3136;48.788;9.772;2023-10-13T15:48:42;22.20;1.00
6206;DHT22;3136;48.788;9.772;2023-10-13T15:51:11;21.70;1.00
6206;DHT22;3136;48.788;9.772;2023-10-13T15:53:41;21.60;1.60
6206;DHT22;3136;48.788;9.772;2023-10-13T15:56:08;21.40;2.40
6206;DHT22;3136;48.788;9.772;2023-10-13T15:58:38;21.20;10.60
6206;DHT22;3136;48.788;9.772;2023-10-13T16:01:05;21.00;13.30
6206;DHT22;3136;48.788;9.772;2023-10-13T16:03:33;20.90;20.80
6206;DHT22;3136;48.788;9.772;2023-10-13T16:06:02;20.80;23.90
6206;DHT22;3136;48.788;9.772;2023-10-13T16:08:30;20.60;36.40
6206;DHT22;3136;48.788;9.772;2023-10-13T16:11:04;20.50;54.00
6206;DHT22;3136;48.788;9.772;2023-10-13T16:13:35;20.40;74.10
6206;DHT22;3136;48.788;9.772;2023-10-13T16:16:02;20.10;87.60
6206;DHT22;3136;48.788;9.772;2023-10-13T16:18:28;19.90;99.90
6206;DHT22;3136;48.788;9.772;2023-10-13T16:20:58;19.70;99.90
6206;DHT22;3136;48.788;9.772;2023-10-13T16:23:24;19.60;99.90
6206;DHT22;3136;48.788;9.772;2023-10-13T16:25:50;19.50;99.90
6206;DHT22;3136;48.788;9.772;2023-10-13T16:28:16;19.30;99.90
6206;DHT22;3136;48.788;9.772;2023-10-13T16:30:41;19.10;99.90
6206;DHT22;3136;48.788;9.772;2023-10-13T16:33:07;18.90;99.90
6206;DHT22;3136;48.788;9.772;2023-10-13T16:35:33;18.80;99.90
6206;DHT22;3136;48.788;9.772;2023-10-13T16:37:59;18.70;99.90
6206;DHT22;3136;48.788;9.772;2023-10-13T16:40:32;18.50;99.90
6206;DHT22;3136;48.788;9.772;2023-10-13T16:42:57;18.40;99.90
6206;DHT22;3136;48.788;9.772;2023-10-13T16:45:23;18.40;99.90
6206;DHT22;3136;48.788;9.772;2023-10-13T16:47:51;18.20;99.90
6206;DHT22;3136;48.788;9.772;2023-10-13T16:50:19;18.10;99.90
6206;DHT22;3136;48.788;9.772;2023-10-13T16:52:47;18.00;99.90
6206;DHT22;3136;48.788;9.772;2023-10-13T16:55:17;18.00;99.90
6206;DHT22;3136;48.788;9.772;2023-10-13T16:57:45;17.90;99.90
6206;DHT22;3136;48.788;9.772;2023-10-13T17:00:11;17.80;99.90
6206;DHT22;3136;48.788;9.772;2023-10-13T17:02:40;17.60;99.90
6206;DHT22;3136;48.788;9.772;2023-10-13T17:05:10;17.50;99.90